Time;durP1;ratioP1;P1;durP2;ratioP2;P2;SDS_P1;SDS_P2;PMS_P1;PMS_P2;Temp;Humidity;BMP_temperature;BMP_pressure;BME280_temperature;BME280_humidity;BME280_pressure;Samples;Min_cycle;Max_cycle;Signal;HPM_P1;HPM_P2
2022/02/09 00:05:16;;;;;;;0.50;0.50;;;;;;;;;;5075218;28;20685;-65
2022/02/09 00:07:52;;;;;;;0.50;0.50;;;;;;;;;;5075475;28;20159;-64
2022/02/09 00:10:18;;;;;;;0.50;0.50;;;;;;;;;;5075122;28;20155;-63
2022/02/09 00:13:07;;;;;;;0.40;0.40;;;;;;;;;;5075330;28;20190;-64
2022/02/09 00:15:41;;;;;;;0.50;0.50;;;;;;;;;;5075062;28;20190;-62
2022/02/09 00:18:33;;;;;;;0.50;0.50;;;;;;;;;;5074848;28;20198;-60
2022/02/09 00:23:46;;;;;;;0.50;0.50;;;;;;;;;;5074385;28;20214;-62
2022/02/09 00:29:17;;;;;;;0.50;0.50;;;;;;;;;;5074389;28;20183;-63
2022/02/09 00:43:10;;;;;;;0.43;0.43;;;;;;;;;;5074296;28;20515;-64
2022/02/09 01:43:33;;;;;;;0.50;0.50;;;;;;;;;;5072911;28;20230;-65
2022/02/09 01:51:21;;;;;;;0.45;0.45;;;;;;;;;;5072551;28;20252;-63
2022/02/09 01:56:34;;;;;;;0.50;0.50;;;;;;;;;;5072772;28;20182;-64
2022/02/09 01:59:00;;;;;;;0.50;0.50;;;;;;;;;;5072664;28;20642;-64
2022/02/09 02:01:26;;;;;;;0.52;0.52;;;;;;;;;;5072233;28;20179;-63
2022/02/09 02:03:53;;;;;;;0.60;0.60;;;;;;;;;;5072460;28;20203;-64
2022/02/09 02:06:20;;;;;;;0.50;0.50;;;;;;;;;;5072269;28;20167;-65
2022/02/09 02:08:48;;;;;;;0.40;0.40;;;;;;;;;;5072507;28;20583;-64
2022/02/09 02:11:26;;;;;;;0.50;0.50;;;;;;;;;;5072022;28;20209;-64
2022/02/09 02:14:10;;;;;;;0.50;0.50;;;;;;;;;;5072524;28;20182;-64
2022/02/09 02:16:44;;;;;;;0.60;0.60;;;;;;;;;;5054401;28;20201;-64
2022/02/09 02:19:25;;;;;;;0.50;0.50;;;;;;;;;;5072317;28;20235;-61
2022/02/09 02:22:04;;;;;;;0.50;0.50;;;;;;;;;;5071862;28;20191;-63
2022/02/09 02:30:18;;;;;;;0.50;0.50;;;;;;;;;;5071616;28;20167;-64
2022/02/09 02:32:47;;;;;;;0.50;0.50;;;;;;;;;;5068639;28;20641;-64
2022/02/09 02:35:48;;;;;;;0.50;0.50;;;;;;;;;;5071861;28;20540;-64
2022/02/09 02:41:54;;;;;;;0.60;0.60;;;;;;;;;;5071802;28;20631;-63
2022/02/09 03:08:30;;;;;;;0.50;0.50;;;;;;;;;;5071520;28;20206;-63
2022/02/09 03:11:06;;;;;;;0.50;0.50;;;;;;;;;;5071058;28;20235;-65
2022/02/09 03:13:37;;;;;;;0.50;0.50;;;;;;;;;;5071468;28;20681;-64
2022/02/09 03:16:08;;;;;;;0.50;0.50;;;;;;;;;;5071623;28;20190;-63
2022/02/09 03:23:52;;;;;;;0.50;0.50;;;;;;;;;;5071308;28;20618;-65
2022/02/09 03:57:45;;;;;;;0.50;0.50;;;;;;;;;;5071161;28;20176;-64
2022/02/09 04:00:16;;;;;;;0.50;0.50;;;;;;;;;;5070804;28;20680;-65
2022/02/09 04:02:49;;;;;;;0.50;0.50;;;;;;;;;;5070855;28;20199;-64
2022/02/09 04:05:17;;;;;;;0.50;0.50;;;;;;;;;;5071550;28;20206;-63
2022/02/09 04:07:43;;;;;;;0.50;0.50;;;;;;;;;;5074692;28;20217;-64
2022/02/09 04:10:14;;;;;;;0.50;0.50;;;;;;;;;;5075893;28;20181;-63
2022/02/09 04:12:56;;;;;;;0.50;0.50;;;;;;;;;;5056702;28;20195;-64
2022/02/09 04:15:46;;;;;;;0.60;0.60;;;;;;;;;;5074752;28;20156;-63
2022/02/09 04:37:42;;;;;;;0.60;0.60;;;;;;;;;;5074645;28;20183;-65
2022/02/09 04:40:11;;;;;;;0.38;0.38;;;;;;;;;;5073983;28;20289;-64
2022/02/09 04:45:33;;;;;;;0.50;0.50;;;;;;;;;;5074131;28;20701;-64
2022/02/09 04:48:00;;;;;;;0.50;0.50;;;;;;;;;;5073895;28;20420;-64
2022/02/09 04:50:34;;;;;;;0.50;0.50;;;;;;;;;;5073915;28;20194;-65
2022/02/09 04:53:17;;;;;;;0.40;0.40;;;;;;;;;;5073814;28;20255;-64
2022/02/09 04:55:51;;;;;;;0.50;0.50;;;;;;;;;;5073772;28;20198;-64
2022/02/09 05:04:10;;;;;;;0.40;0.40;;;;;;;;;;5042151;28;20467;-64
2022/02/09 05:22:47;;;;;;;0.50;0.50;;;;;;;;;;5073333;28;20203;-64
2022/02/09 05:28:10;;;;;;;0.50;0.50;;;;;;;;;;5073526;28;20174;-65
2022/02/09 05:30:36;;;;;;;0.50;0.50;;;;;;;;;;5073018;28;20163;-63
2022/02/09 05:33:02;;;;;;;0.40;0.40;;;;;;;;;;5073297;28;20190;-63
2022/02/09 05:35:28;;;;;;;0.50;0.50;;;;;;;;;;5073118;28;20171;-63
2022/02/09 05:37:55;;;;;;;0.50;0.50;;;;;;;;;;5073014;28;20174;-64
2022/02/09 05:40:21;;;;;;;0.40;0.40;;;;;;;;;;5099702;22;20237;-63
2022/02/09 05:42:47;;;;;;;0.60;0.60;;;;;;;;;;5092972;28;20182;-63
2022/02/09 05:45:14;;;;;;;0.50;0.50;;;;;;;;;;5092979;28;20833;-63
2022/02/09 05:50:28;;;;;;;0.52;0.52;;;;;;;;;;5092663;28;20190;-63
2022/02/09 05:58:20;;;;;;;0.50;0.50;;;;;;;;;;5092814;28;20174;-63
2022/02/09 06:00:47;;;;;;;0.40;0.40;;;;;;;;;;5092408;28;20595;-63
2022/02/09 06:03:14;;;;;;;0.50;0.50;;;;;;;;;;5093007;28;20286;-63
2022/02/09 06:05:40;;;;;;;0.50;0.50;;;;;;;;;;5074614;28;20639;-63
2022/02/09 06:08:07;;;;;;;0.50;0.50;;;;;;;;;;5074491;28;20263;-63
2022/02/09 06:10:34;;;;;;;0.50;0.50;;;;;;;;;;5092233;28;20198;-63
2022/02/09 06:20:59;;;;;;;0.50;0.50;;;;;;;;;;5092334;28;20219;-63
2022/02/09 06:23:26;;;;;;;0.50;0.50;;;;;;;;;;5092472;28;20194;-63
2022/02/09 06:25:52;;;;;;;0.50;0.50;;;;;;;;;;5092372;28;20239;-63
2022/02/09 06:28:18;;;;;;;0.50;0.50;;;;;;;;;;5091668;28;20249;-63
2022/02/09 06:30:44;;;;;;;0.40;0.40;;;;;;;;;;5092013;28;20479;-63
2022/02/09 06:33:11;;;;;;;0.60;0.60;;;;;;;;;;5092251;28;20209;-63
2022/02/09 06:35:36;;;;;;;0.40;0.40;;;;;;;;;;5087717;28;20964;-63
2022/02/09 06:38:03;;;;;;;0.50;0.50;;;;;;;;;;5074658;28;20175;-63
2022/02/09 06:40:29;;;;;;;0.50;0.50;;;;;;;;;;5081114;28;20453;-63
2022/02/09 06:42:55;;;;;;;0.50;0.50;;;;;;;;;;5071969;28;20240;-63
2022/02/09 06:45:26;;;;;;;0.50;0.50;;;;;;;;;;5080485;28;20745;-63
2022/02/09 06:47:52;;;;;;;0.50;0.50;;;;;;;;;;5074023;28;20230;-63
2022/02/09 06:50:35;;;;;;;0.50;0.50;;;;;;;;;;5079203;28;20318;-63
2022/02/09 06:53:15;;;;;;;0.50;0.50;;;;;;;;;;5071673;28;20171;-63
2022/02/09 06:55:54;;;;;;;0.50;0.50;;;;;;;;;;5074265;28;20178;-63
2022/02/09 06:58:31;;;;;;;0.50;0.50;;;;;;;;;;5085853;28;20182;-63
2022/02/09 07:00:57;;;;;;;0.40;0.40;;;;;;;;;;5090528;28;20212;-63
2022/02/09 07:03:23;;;;;;;0.50;0.50;;;;;;;;;;5072655;28;20183;-61
2022/02/09 07:05:49;;;;;;;0.50;0.50;;;;;;;;;;5084168;28;20248;-63
2022/02/09 07:08:15;;;;;;;0.50;0.50;;;;;;;;;;5073394;28;20484;-63
2022/02/09 07:10:42;;;;;;;0.50;0.50;;;;;;;;;;5081360;28;20941;-63
2022/02/09 07:13:08;;;;;;;0.50;0.50;;;;;;;;;;5075472;28;20419;-63
2022/02/09 07:15:40;;;;;;;0.40;0.40;;;;;;;;;;5073703;28;20183;-62
2022/02/09 07:18:10;;;;;;;0.50;0.50;;;;;;;;;;5089727;28;20430;-63
2022/02/09 07:23:18;;;;;;;0.50;0.50;;;;;;;;;;5074293;28;20182;-63
2022/02/09 07:25:49;;;;;;;0.52;0.52;;;;;;;;;;5071292;28;20208;-63
2022/02/09 07:28:15;;;;;;;0.50;0.50;;;;;;;;;;5071073;28;20269;-63
2022/02/09 07:30:43;;;;;;;0.50;0.50;;;;;;;;;;5071083;28;20193;-63
2022/02/09 07:33:09;;;;;;;0.50;0.50;;;;;;;;;;5071144;28;20261;-63
2022/02/09 07:35:38;;;;;;;0.50;0.50;;;;;;;;;;5071141;28;20181;-62
2022/02/09 07:38:04;;;;;;;0.50;0.50;;;;;;;;;;5071112;28;20170;-62
2022/02/09 07:40:30;;;;;;;0.47;0.47;;;;;;;;;;5073308;28;20596;-63
2022/02/09 07:43:03;;;;;;;0.50;0.50;;;;;;;;;;5086060;28;20415;-64
2022/02/09 07:45:55;;;;;;;0.50;0.50;;;;;;;;;;5077701;28;20238;-63
2022/02/09 07:51:11;;;;;;;0.50;0.50;;;;;;;;;;5094752;28;20548;-63
2022/02/09 07:56:31;;;;;;;0.50;0.50;;;;;;;;;;5073229;28;20200;-62
2022/02/09 07:58:57;;;;;;;0.50;0.50;;;;;;;;;;5078631;28;20178;-62
2022/02/09 08:01:23;;;;;;;0.50;0.50;;;;;;;;;;5092439;28;20821;-62
2022/02/09 08:03:50;;;;;;;0.50;0.50;;;;;;;;;;5079890;28;20634;-62
2022/02/09 08:06:18;;;;;;;0.60;0.60;;;;;;;;;;5075608;28;20225;-62
2022/02/09 08:08:45;;;;;;;0.50;0.50;;;;;;;;;;5075904;28;20582;-62
2022/02/09 08:11:17;;;;;;;0.40;0.40;;;;;;;;;;5085334;28;20199;-62
2022/02/09 08:34:55;;;;;;;0.50;0.50;;;;;;;;;;5094415;28;20173;-62
2022/02/09 08:37:21;;;;;;;0.50;0.50;;;;;;;;;;5094381;28;20181;-63
2022/02/09 08:39:49;;;;;;;0.50;0.50;;;;;;;;;;5094044;28;20163;-63
2022/02/09 08:42:15;;;;;;;0.50;0.50;;;;;;;;;;5093958;28;20253;-63
2022/02/09 08:44:41;;;;;;;0.50;0.50;;;;;;;;;;5094227;28;20226;-63
2022/02/09 08:47:07;;;;;;;0.50;0.50;;;;;;;;;;5094200;28;20665;-63
2022/02/09 08:49:33;;;;;;;0.45;0.45;;;;;;;;;;5094161;28;20178;-63
2022/02/09 08:52:00;;;;;;;0.40;0.40;;;;;;;;;;5093369;28;20573;-63
2022/02/09 08:54:26;;;;;;;0.40;0.40;;;;;;;;;;5094165;28;20175;-63
2022/02/09 08:56:53;;;;;;;0.50;0.50;;;;;;;;;;5093984;28;20650;-63
2022/02/09 08:59:25;;;;;;;0.50;0.50;;;;;;;;;;5094066;28;20201;-63
2022/02/09 09:01:57;;;;;;;0.50;0.50;;;;;;;;;;5093636;28;20202;-63
2022/02/09 09:04:29;;;;;;;0.50;0.50;;;;;;;;;;5094219;28;20263;-63
2022/02/09 09:06:57;;;;;;;0.50;0.50;;;;;;;;;;5094169;28;20179;-63
2022/02/09 09:17:34;;;;;;;0.50;0.50;;;;;;;;;;5093786;28;20266;-63
2022/02/09 09:58:04;;;;;;;0.40;0.40;;;;;;;;;;5093406;28;20413;-64
2022/02/09 10:04:15;;;;;;;0.40;0.40;;;;;;;;;;5092230;28;20667;-64
2022/02/09 10:14:13;;;;;;;0.30;0.30;;;;;;;;;;5092763;28;20241;-63
2022/02/09 10:32:40;;;;;;;0.43;0.43;;;;;;;;;;5071839;28;20175;-63
2022/02/09 10:35:17;;;;;;;0.50;0.50;;;;;;;;;;5072205;28;20232;-63
2022/02/09 10:37:43;;;;;;;0.40;0.40;;;;;;;;;;5071775;28;20295;-63
2022/02/09 10:40:26;;;;;;;0.40;0.40;;;;;;;;;;5071242;28;20688;-63
2022/02/09 10:42:58;;;;;;;0.50;0.50;;;;;;;;;;5053729;28;20425;-64
2022/02/09 10:45:36;;;;;;;0.40;0.40;;;;;;;;;;5071808;28;20253;-63
2022/02/09 10:48:06;;;;;;;0.50;0.50;;;;;;;;;;5071618;28;20174;-63
2022/02/09 10:50:35;;;;;;;0.40;0.40;;;;;;;;;;5072103;28;20198;-63
2022/02/09 10:53:03;;;;;;;0.50;0.50;;;;;;;;;;5071781;28;20309;-63
2022/02/09 10:55:34;;;;;;;0.40;0.40;;;;;;;;;;5071476;28;20607;-63
2022/02/09 10:58:01;;;;;;;0.40;0.40;;;;;;;;;;5071574;28;20172;-63
2022/02/09 11:00:27;;;;;;;0.40;0.40;;;;;;;;;;5071148;28;20199;-63
2022/02/09 11:02:54;;;;;;;0.40;0.40;;;;;;;;;;5071310;28;20778;-63
2022/02/09 11:05:20;;;;;;;0.40;0.40;;;;;;;;;;5071382;28;20481;-64
2022/02/09 11:07:47;;;;;;;0.40;0.40;;;;;;;;;;5071509;28;20401;-64
2022/02/09 11:10:14;;;;;;;0.40;0.40;;;;;;;;;;5071107;28;20471;-64
2022/02/09 11:12:41;;;;;;;0.30;0.30;;;;;;;;;;5071552;28;20416;-64
2022/02/09 11:15:08;;;;;;;0.30;0.30;;;;;;;;;;5070862;28;20761;-64
2022/02/09 11:17:34;;;;;;;0.30;0.30;;;;;;;;;;5071406;28;20416;-64
2022/02/09 11:20:00;;;;;;;0.30;0.30;;;;;;;;;;5070697;28;20472;-65
2022/02/09 11:22:39;;;;;;;0.30;0.30;;;;;;;;;;5071112;28;20406;-65
2022/02/09 11:25:08;;;;;;;0.20;0.20;;;;;;;;;;5071380;28;20508;-62
2022/02/09 11:27:37;;;;;;;0.20;0.20;;;;;;;;;;5070386;28;20377;-64
2022/02/09 11:30:34;;;;;;;0.20;0.20;;;;;;;;;;5066363;28;20442;-65
2022/02/09 11:33:26;;;;;;;0.30;0.30;;;;;;;;;;5052955;28;20830;-65
2022/02/09 11:36:27;;;;;;;0.20;0.20;;;;;;;;;;5053657;28;20423;-65
2022/02/09 11:38:58;;;;;;;0.20;0.20;;;;;;;;;;5053399;28;20445;-64
2022/02/09 11:41:35;;;;;;;0.20;0.20;;;;;;;;;;5093110;22;20492;-63
2022/02/09 11:46:50;;;;;;;0.30;0.30;;;;;;;;;;5091360;28;20387;-63
2022/02/09 11:49:50;;;;;;;0.20;0.20;;;;;;;;;;5091514;28;20420;-63
2022/02/09 12:00:49;;;;;;;0.30;0.30;;;;;;;;;;5070979;28;20900;-63
2022/02/09 12:12:01;;;;;;;0.30;0.30;;;;;;;;;;5070882;28;20410;-63
2022/02/09 12:14:57;;;;;;;0.20;0.20;;;;;;;;;;5070898;28;20956;-63
2022/02/09 12:20:02;;;;;;;0.30;0.30;;;;;;;;;;5070638;28;20435;-63
2022/02/09 12:22:38;;;;;;;0.30;0.30;;;;;;;;;;5070791;28;20431;-63
2022/02/09 12:25:04;;;;;;;0.30;0.30;;;;;;;;;;5070881;28;20497;-63
2022/02/09 12:27:30;;;;;;;0.20;0.20;;;;;;;;;;5073186;28;20923;-63
2022/02/09 12:30:00;;;;;;;0.30;0.30;;;;;;;;;;5073994;28;20495;-63
2022/02/09 12:32:32;;;;;;;0.30;0.30;;;;;;;;;;5073736;28;20933;-63
2022/02/09 12:35:13;;;;;;;0.30;0.30;;;;;;;;;;5074417;28;20396;-63
2022/02/09 12:37:42;;;;;;;0.30;0.30;;;;;;;;;;5074154;28;20376;-63
2022/02/09 12:40:10;;;;;;;0.30;0.30;;;;;;;;;;5073457;28;20846;-63
2022/02/09 12:42:40;;;;;;;0.30;0.30;;;;;;;;;;5074113;28;20508;-63
2022/02/09 12:45:10;;;;;;;0.33;0.33;;;;;;;;;;5073837;28;20458;-63
2022/02/09 12:47:44;;;;;;;0.30;0.30;;;;;;;;;;5056036;28;20413;-63
2022/02/09 12:50:11;;;;;;;0.20;0.20;;;;;;;;;;5073481;28;20406;-63
2022/02/09 12:52:38;;;;;;;0.30;0.30;;;;;;;;;;5073783;28;20877;-63
2022/02/09 12:55:12;;;;;;;0.30;0.30;;;;;;;;;;5073841;28;20389;-63
2022/02/09 12:57:52;;;;;;;0.30;0.30;;;;;;;;;;5073986;28;20463;-63
2022/02/09 13:00:26;;;;;;;0.30;0.30;;;;;;;;;;5073516;28;20878;-63
2022/02/09 13:02:54;;;;;;;0.30;0.30;;;;;;;;;;5073302;28;20391;-63
2022/02/09 13:05:20;;;;;;;0.30;0.30;;;;;;;;;;5073453;28;20510;-63
2022/02/09 13:07:53;;;;;;;0.40;0.40;;;;;;;;;;5072909;28;20780;-63
2022/02/09 13:10:23;;;;;;;0.40;0.40;;;;;;;;;;5073350;28;20859;-63
2022/02/09 13:12:49;;;;;;;0.40;0.40;;;;;;;;;;5073655;28;20429;-63
2022/02/09 13:15:21;;;;;;;0.30;0.30;;;;;;;;;;5073652;28;20456;-63
2022/02/09 14:04:30;;;;;;;0.40;0.40;;;;;;;;;;5072709;28;20875;-62
2022/02/09 14:14:04;;;;;;;0.40;0.40;;;;;;;;;;5072772;28;20375;-62
2022/02/09 14:16:38;;;;;;;0.40;0.40;;;;;;;;;;5071769;28;20396;-63
2022/02/09 14:35:46;;;;;;;0.40;0.40;;;;;;;;;;5072270;28;20399;-62
2022/02/09 14:56:38;;;;;;;0.40;0.40;;;;;;;;;;5071742;28;20543;-62
2022/02/09 14:59:05;;;;;;;0.40;0.40;;;;;;;;;;5071854;28;20434;-62
2022/02/09 15:01:50;;;;;;;0.40;0.40;;;;;;;;;;5071353;28;20428;-62
2022/02/09 15:04:33;;;;;;;0.40;0.40;;;;;;;;;;5071696;28;20451;-62
2022/02/09 15:09:53;;;;;;;0.40;0.40;;;;;;;;;;5071677;28;20550;-63
2022/02/09 15:12:31;;;;;;;0.40;0.40;;;;;;;;;;5071037;28;20199;-62
2022/02/09 15:22:33;;;;;;;0.40;0.40;;;;;;;;;;5071425;28;20448;-62
2022/02/09 15:24:59;;;;;;;0.40;0.40;;;;;;;;;;5071386;28;20482;-61
2022/02/09 15:27:26;;;;;;;0.40;0.40;;;;;;;;;;5071532;28;20403;-62
2022/02/09 15:29:53;;;;;;;0.50;0.50;;;;;;;;;;5053354;28;20410;-62
2022/02/09 15:32:34;;;;;;;0.40;0.40;;;;;;;;;;5071703;28;20846;-63
2022/02/09 15:35:08;;;;;;;0.50;0.50;;;;;;;;;;5069767;28;20304;-62
2022/02/09 15:37:53;;;;;;;0.50;0.50;;;;;;;;;;5071235;28;20378;-62
2022/02/09 16:05:40;;;;;;;0.40;0.40;;;;;;;;;;5075413;28;20245;-63
2022/02/09 16:21:44;;;;;;;0.40;0.40;;;;;;;;;;5068592;28;20207;-62
2022/02/09 16:24:25;;;;;;;0.50;0.50;;;;;;;;;;5074140;28;20178;-62
2022/02/09 16:46:19;;;;;;;0.50;0.50;;;;;;;;;;5044362;28;20329;-62
2022/02/09 16:48:53;;;;;;;0.45;0.45;;;;;;;;;;5073835;28;20174;-62
2022/02/09 16:51:22;;;;;;;0.50;0.50;;;;;;;;;;5073726;28;20269;-62
2022/02/09 16:54:11;;;;;;;0.47;0.47;;;;;;;;;;5073734;28;20714;-62
2022/02/09 17:21:09;;;;;;;0.50;0.50;;;;;;;;;;5053295;28;20192;-62
2022/02/09 17:23:35;;;;;;;0.50;0.50;;;;;;;;;;5054254;28;20283;-62
2022/02/09 17:26:01;;;;;;;0.50;0.50;;;;;;;;;;5053421;28;20461;-63
2022/02/09 17:28:27;;;;;;;0.50;0.50;;;;;;;;;;5035184;28;20176;-62
2022/02/09 17:36:12;;;;;;;0.50;0.50;;;;;;;;;;5052618;28;20502;-62
2022/02/09 17:38:56;;;;;;;0.50;0.50;;;;;;;;;;5052866;28;20204;-62
2022/02/09 17:57:53;;;;;;;0.50;0.50;;;;;;;;;;5061288;28;20187;-64
2022/02/09 18:00:19;;;;;;;0.50;0.50;;;;;;;;;;5064362;28;20191;-64
2022/02/09 18:02:49;;;;;;;0.50;0.50;;;;;;;;;;5059613;28;20202;-64
2022/02/09 18:08:05;;;;;;;0.52;0.52;;;;;;;;;;5064755;28;20623;-64
2022/02/09 18:29:28;;;;;;;0.50;0.50;;;;;;;;;;5057673;28;20174;-65
2022/02/09 18:32:11;;;;;;;0.50;0.50;;;;;;;;;;5063411;28;20187;-68
2022/02/09 18:45:22;;;;;;;0.50;0.50;;;;;;;;;;5064775;28;20207;-65
2022/02/09 18:48:15;;;;;;;0.60;0.60;;;;;;;;;;5059676;28;20187;-65
2022/02/09 19:04:39;;;;;;;0.50;0.50;;;;;;;;;;5066415;28;20195;-65
2022/02/09 19:46:42;;;;;;;0.50;0.50;;;;;;;;;;5070827;28;20677;-65
2022/02/09 19:52:07;;;;;;;0.40;0.40;;;;;;;;;;5067873;28;20297;-65
2022/02/09 19:57:19;;;;;;;0.60;0.60;;;;;;;;;;5071016;28;20197;-64
2022/02/09 19:59:47;;;;;;;0.60;0.60;;;;;;;;;;5065091;28;20171;-65
2022/02/09 20:02:14;;;;;;;0.50;0.50;;;;;;;;;;5067887;28;20700;-65
2022/02/09 20:04:40;;;;;;;0.55;0.55;;;;;;;;;;5065660;28;20199;-65
2022/02/09 20:07:07;;;;;;;0.50;0.50;;;;;;;;;;5068067;28;20201;-65
2022/02/09 20:09:33;;;;;;;0.50;0.50;;;;;;;;;;5068564;28;20413;-64
2022/02/09 20:11:59;;;;;;;0.50;0.50;;;;;;;;;;5063644;28;20197;-64
2022/02/09 20:14:26;;;;;;;0.52;0.52;;;;;;;;;;5069000;28;20171;-65
2022/02/09 20:16:53;;;;;;;0.50;0.50;;;;;;;;;;5071610;28;20261;-65
2022/02/09 20:19:19;;;;;;;0.50;0.50;;;;;;;;;;5072982;28;20232;-65
2022/02/09 20:21:45;;;;;;;0.50;0.50;;;;;;;;;;5074162;28;20661;-64
2022/02/09 20:24:14;;;;;;;0.50;0.50;;;;;;;;;;5074026;28;20437;-65
2022/02/09 20:26:41;;;;;;;0.50;0.50;;;;;;;;;;5074506;28;20404;-65
2022/02/09 20:29:13;;;;;;;0.60;0.60;;;;;;;;;;5073423;28;20202;-64
2022/02/09 20:31:54;;;;;;;0.50;0.50;;;;;;;;;;5062795;28;20196;-64
2022/02/09 20:34:31;;;;;;;0.60;0.60;;;;;;;;;;5053416;28;20175;-65
2022/02/09 20:36:57;;;;;;;0.50;0.50;;;;;;;;;;5052684;28;20872;-65
2022/02/09 20:39:29;;;;;;;0.52;0.52;;;;;;;;;;5053936;28;20233;-65
2022/02/09 20:41:57;;;;;;;0.50;0.50;;;;;;;;;;5036089;28;20215;-64
2022/02/09 20:46:53;;;;;;;0.50;0.50;;;;;;;;;;5052690;28;20168;-64
2022/02/09 20:49:20;;;;;;;0.50;0.50;;;;;;;;;;5054151;28;20180;-65
2022/02/09 20:51:45;;;;;;;0.50;0.50;;;;;;;;;;5053840;28;20267;-64
2022/02/09 20:54:11;;;;;;;0.50;0.50;;;;;;;;;;5063472;28;20660;-64
2022/02/09 20:56:37;;;;;;;0.50;0.50;;;;;;;;;;5073548;28;20398;-64
2022/02/09 20:59:09;;;;;;;0.50;0.50;;;;;;;;;;5068774;28;20399;-65
2022/02/09 21:01:47;;;;;;;0.50;0.50;;;;;;;;;;5073256;28;20424;-65
2022/02/09 21:04:16;;;;;;;0.50;0.50;;;;;;;;;;5073567;28;20171;-65
2022/02/09 21:29:03;;;;;;;0.50;0.50;;;;;;;;;;5072144;28;20206;-64
2022/02/09 21:42:23;;;;;;;0.55;0.55;;;;;;;;;;5069634;28;20275;-64
2022/02/09 21:57:42;;;;;;;0.50;0.50;;;;;;;;;;5069657;28;20605;-64
2022/02/09 22:00:38;;;;;;;0.60;0.60;;;;;;;;;;5072086;28;20211;-65
2022/02/09 22:19:18;;;;;;;0.50;0.50;;;;;;;;;;5061172;28;20651;-65
2022/02/09 22:27:42;;;;;;;0.60;0.60;;;;;;;;;;5071563;28;20503;-64
2022/02/09 22:56:51;;;;;;;0.50;0.50;;;;;;;;;;5071880;28;20401;-64
2022/02/09 22:59:45;;;;;;;0.60;0.60;;;;;;;;;;5071671;28;20175;-64
2022/02/09 23:02:09;;;;;;;0.50;0.50;;;;;;;;;;5070697;28;20536;-63
2022/02/09 23:12:19;;;;;;;0.50;0.50;;;;;;;;;;5071160;28;20191;-64
2022/02/09 23:22:57;;;;;;;0.50;0.50;;;;;;;;;;5071174;28;20430;-64
2022/02/09 23:25:57;;;;;;;0.40;0.40;;;;;;;;;;5071002;28;20468;-64
